Time;durP1;ratioP1;P1;durP2;ratioP2;P2;SDS_P1;SDS_P2;PMS_P1;PMS_P2;Temp;Humidity;BMP_temperature;BMP_pressure;BME280_temperature;BME280_humidity;BME280_pressure;Samples;Min_cycle;Max_cycle;Signal;HPM_P1;HPM_P2
2022/09/17 00:00:25;;;;;;;20.38;8.55;;;;;;;;;;6216581;23;20439;-71
2022/09/17 00:02:54;;;;;;;8.20;2.80;;;;;;;;;;6216665;23;20091;-71
2022/09/17 00:05:23;;;;;;;9.32;2.90;;;;;;;;;;6216855;23;20017;-71
2022/09/17 00:07:51;;;;;;;7.13;3.45;;;;;;;;;;6216740;23;20423;-71
2022/09/17 00:10:20;;;;;;;12.60;5.88;;;;;;;;;;6216491;23;20017;-71
2022/09/17 00:12:47;;;;;;;11.80;3.70;;;;;;;;;;6190457;23;20026;-71
2022/09/17 00:15:15;;;;;;;12.10;4.25;;;;;;;;;;6216504;23;20407;-72
2022/09/17 00:17:43;;;;;;;7.45;4.00;;;;;;;;;;6216427;23;20024;-71
2022/09/17 00:20:10;;;;;;;8.90;4.35;;;;;;;;;;6216398;23;20017;-71
2022/09/17 00:22:38;;;;;;;9.75;3.97;;;;;;;;;;6216344;23;20021;-71
2022/09/17 00:25:07;;;;;;;9.27;5.10;;;;;;;;;;6216547;23;20432;-70
2022/09/17 00:27:34;;;;;;;6.88;4.05;;;;;;;;;;6216454;23;20446;-70
2022/09/17 00:30:02;;;;;;;19.27;8.95;;;;;;;;;;6216527;23;20020;-70
2022/09/17 00:32:30;;;;;;;22.42;12.98;;;;;;;;;;6216698;23;20020;-71
2022/09/17 00:34:57;;;;;;;25.48;14.32;;;;;;;;;;6216324;23;20457;-70
2022/09/17 00:37:24;;;;;;;30.85;16.95;;;;;;;;;;6216249;23;20025;-70
2022/09/17 00:39:52;;;;;;;7.85;3.78;;;;;;;;;;6216069;23;20016;-70
2022/09/17 00:42:20;;;;;;;23.95;13.85;;;;;;;;;;6216079;23;20100;-70
2022/09/17 00:44:52;;;;;;;23.08;11.93;;;;;;;;;;6216160;23;20023;-70
2022/09/17 00:47:23;;;;;;;21.70;10.23;;;;;;;;;;6216076;23;20346;-70
2022/09/17 00:49:53;;;;;;;11.32;5.60;;;;;;;;;;6216342;23;20019;-71
2022/09/17 00:52:23;;;;;;;25.10;10.43;;;;;;;;;;6216142;23;20066;-70
2022/09/17 00:54:57;;;;;;;16.83;7.63;;;;;;;;;;6216221;23;20052;-70
2022/09/17 00:57:25;;;;;;;24.27;9.32;;;;;;;;;;6216502;23;20074;-70
2022/09/17 00:59:53;;;;;;;20.65;7.80;;;;;;;;;;6216144;23;20062;-70
2022/09/17 01:02:21;;;;;;;23.23;10.00;;;;;;;;;;6216153;23;20071;-70
2022/09/17 01:04:50;;;;;;;13.02;6.00;;;;;;;;;;6216465;23;20371;-70
2022/09/17 01:07:32;;;;;;;17.13;7.10;;;;;;;;;;6215909;23;20075;-70
2022/09/17 01:10:06;;;;;;;10.05;6.03;;;;;;;;;;6216111;23;20125;-70
2022/09/17 01:13:12;;;;;;;28.42;19.67;;;;;;;;;;6215854;23;20017;-70
2022/09/17 01:15:48;;;;;;;41.72;32.03;;;;;;;;;;6065848;23;20545;-70
2022/09/17 01:18:28;;;;;;;17.27;12.57;;;;;;;;;;6065736;23;20065;-70
2022/09/17 01:20:56;;;;;;;33.65;23.30;;;;;;;;;;6161379;23;20100;-70
2022/09/17 01:23:23;;;;;;;27.70;20.40;;;;;;;;;;6215856;23;20454;-70
2022/09/17 01:26:03;;;;;;;34.15;23.30;;;;;;;;;;6215731;23;20016;-70
2022/09/17 01:28:49;;;;;;;81.88;59.65;;;;;;;;;;6215875;23;20025;-70
2022/09/17 01:31:25;;;;;;;16.20;8.38;;;;;;;;;;6215771;23;20084;-70
2022/09/17 01:34:00;;;;;;;12.52;6.53;;;;;;;;;;6215764;23;20024;-71
2022/09/17 01:36:33;;;;;;;23.88;17.13;;;;;;;;;;6215714;23;20017;-70
2022/09/17 01:39:20;;;;;;;33.05;22.67;;;;;;;;;;6215712;23;20021;-70
2022/09/17 01:41:53;;;;;;;14.80;9.48;;;;;;;;;;6215887;23;20048;-70
2022/09/17 01:44:28;;;;;;;9.10;5.15;;;;;;;;;;6215700;23;20017;-70
2022/09/17 01:47:01;;;;;;;16.10;11.52;;;;;;;;;;6215569;23;20080;-70
2022/09/17 01:49:30;;;;;;;18.70;13.75;;;;;;;;;;6215645;23;20027;-70
2022/09/17 01:51:58;;;;;;;12.82;8.32;;;;;;;;;;6215360;23;20067;-70
2022/09/17 01:54:28;;;;;;;17.70;10.52;;;;;;;;;;6215513;23;20016;-70
2022/09/17 01:57:25;;;;;;;14.98;7.53;;;;;;;;;;6215667;23;20017;-71
2022/09/17 01:59:59;;;;;;;12.30;7.38;;;;;;;;;;6085659;23;20078;-71
2022/09/17 02:02:32;;;;;;;9.07;3.57;;;;;;;;;;6189538;23;20023;-70
2022/09/17 02:05:19;;;;;;;20.17;12.90;;;;;;;;;;6215540;23;20023;-71
2022/09/17 02:07:55;;;;;;;35.70;24.85;;;;;;;;;;6215417;23;20016;-71
2022/09/17 02:10:31;;;;;;;50.72;39.55;;;;;;;;;;6215885;23;20136;-70
2022/09/17 02:13:04;;;;;;;38.42;28.90;;;;;;;;;;6215419;23;20021;-71
2022/09/17 02:15:37;;;;;;;31.75;22.48;;;;;;;;;;6215479;23;20087;-70
2022/09/17 02:18:14;;;;;;;23.05;18.30;;;;;;;;;;6215326;23;20021;-71
2022/09/17 02:20:47;;;;;;;17.08;12.25;;;;;;;;;;6215353;23;20132;-70
2022/09/17 02:23:18;;;;;;;11.75;5.20;;;;;;;;;;6215157;23;20028;-70
2022/09/17 02:25:52;;;;;;;7.07;3.33;;;;;;;;;;6188837;23;20021;-71
2022/09/17 02:28:25;;;;;;;13.10;9.65;;;;;;;;;;6215255;23;20026;-71
2022/09/17 02:30:53;;;;;;;20.73;14.20;;;;;;;;;;6215631;23;20338;-71
2022/09/17 02:33:21;;;;;;;15.10;10.65;;;;;;;;;;6215291;23;20391;-71
2022/09/17 02:35:49;;;;;;;8.10;4.38;;;;;;;;;;6215445;23;20023;-70
2022/09/17 02:38:26;;;;;;;9.45;6.35;;;;;;;;;;6215303;23;20012;-70
2022/09/17 02:40:59;;;;;;;11.50;5.63;;;;;;;;;;6215142;23;20087;-70
2022/09/17 02:43:41;;;;;;;15.68;9.07;;;;;;;;;;6215399;23;20374;-70
2022/09/17 02:46:12;;;;;;;10.48;6.43;;;;;;;;;;6215314;23;20028;-71
2022/09/17 02:48:47;;;;;;;5.22;2.97;;;;;;;;;;6215467;23;20023;-70
2022/09/17 02:51:23;;;;;;;9.73;5.72;;;;;;;;;;6215265;23;20023;-71
2022/09/17 02:53:57;;;;;;;4.97;2.20;;;;;;;;;;6215157;23;20021;-70
2022/09/17 02:56:27;;;;;;;3.25;1.95;;;;;;;;;;6215416;23;20104;-71
2022/09/17 02:59:05;;;;;;;6.22;2.30;;;;;;;;;;6215250;23;20063;-70
2022/09/17 03:01:36;;;;;;;5.43;2.10;;;;;;;;;;6214854;23;20022;-71
2022/09/17 03:04:05;;;;;;;6.30;2.30;;;;;;;;;;6215129;23;20017;-70
2022/09/17 03:06:33;;;;;;;6.97;2.40;;;;;;;;;;6215617;23;20063;-70
2022/09/17 03:09:00;;;;;;;8.23;3.55;;;;;;;;;;6217046;23;20020;-70
2022/09/17 03:11:27;;;;;;;7.05;2.50;;;;;;;;;;6217160;23;20021;-70
2022/09/17 03:13:57;;;;;;;6.22;3.17;;;;;;;;;;6217241;23;20042;-70
2022/09/17 03:16:25;;;;;;;7.00;3.00;;;;;;;;;;6216842;23;20513;-70
2022/09/17 03:18:52;;;;;;;11.75;4.32;;;;;;;;;;6217471;23;20031;-70
2022/09/17 03:21:20;;;;;;;7.15;3.60;;;;;;;;;;6217287;23;20047;-70
2022/09/17 03:23:47;;;;;;;3.92;2.40;;;;;;;;;;6216849;23;20035;-70
2022/09/17 03:26:15;;;;;;;5.50;2.00;;;;;;;;;;6190493;23;20439;-70
2022/09/17 03:28:42;;;;;;;8.15;3.70;;;;;;;;;;6216898;23;20035;-70
2022/09/17 03:31:10;;;;;;;4.68;2.20;;;;;;;;;;6217250;23;20017;-71
2022/09/17 03:33:37;;;;;;;5.55;2.20;;;;;;;;;;6216936;23;20016;-70
2022/09/17 03:36:05;;;;;;;4.32;1.98;;;;;;;;;;6216678;23;20339;-69
2022/09/17 03:38:33;;;;;;;5.65;2.20;;;;;;;;;;6216646;23;20017;-69
2022/09/17 03:41:06;;;;;;;7.97;2.80;;;;;;;;;;6216711;23;20020;-70
2022/09/17 03:43:33;;;;;;;5.90;2.72;;;;;;;;;;6216878;23;20094;-69
2022/09/17 03:46:01;;;;;;;6.15;2.72;;;;;;;;;;6216967;23;20051;-69
2022/09/17 03:48:29;;;;;;;5.30;2.28;;;;;;;;;;6216766;23;20017;-70
2022/09/17 03:50:56;;;;;;;6.10;3.00;;;;;;;;;;6216739;23;20051;-70
2022/09/17 03:53:24;;;;;;;4.28;2.05;;;;;;;;;;6216591;23;20075;-70
2022/09/17 03:55:51;;;;;;;5.15;2.30;;;;;;;;;;6216337;23;20012;-70
2022/09/17 03:58:19;;;;;;;7.38;2.55;;;;;;;;;;6216516;23;20056;-70
2022/09/17 04:00:51;;;;;;;5.72;2.90;;;;;;;;;;6216451;23;20035;-70
2022/09/17 04:03:20;;;;;;;7.82;3.40;;;;;;;;;;6216681;23;20012;-70
2022/09/17 04:05:48;;;;;;;7.88;3.38;;;;;;;;;;6216949;23;20016;-71
2022/09/17 04:08:18;;;;;;;11.23;2.97;;;;;;;;;;6190216;23;20088;-70
2022/09/17 04:10:45;;;;;;;8.02;3.00;;;;;;;;;;6216442;23;20020;-70
2022/09/17 04:13:14;;;;;;;10.20;3.00;;;;;;;;;;6216438;23;20021;-71
2022/09/17 04:15:41;;;;;;;6.25;3.28;;;;;;;;;;6216089;23;20083;-71
2022/09/17 04:18:09;;;;;;;8.25;3.50;;;;;;;;;;6215862;23;20063;-70
2022/09/17 04:20:37;;;;;;;8.15;3.55;;;;;;;;;;6216376;23;20017;-71
2022/09/17 04:23:05;;;;;;;8.88;3.78;;;;;;;;;;6215754;23;20335;-70
2022/09/17 04:25:33;;;;;;;5.30;2.90;;;;;;;;;;6189909;23;20021;-70
2022/09/17 04:28:01;;;;;;;7.50;2.90;;;;;;;;;;6216336;23;20024;-71
2022/09/17 04:30:28;;;;;;;7.85;3.03;;;;;;;;;;6216167;23;20016;-70
2022/09/17 04:32:56;;;;;;;7.40;3.55;;;;;;;;;;6215783;23;20103;-72
2022/09/17 04:35:23;;;;;;;13.75;3.15;;;;;;;;;;6216539;23;20059;-72
2022/09/17 04:37:52;;;;;;;6.35;3.03;;;;;;;;;;6215887;23;20012;-70
2022/09/17 04:40:20;;;;;;;6.97;3.83;;;;;;;;;;6215861;23;20017;-70
2022/09/17 04:42:48;;;;;;;10.50;3.40;;;;;;;;;;6215188;23;20054;-72
2022/09/17 04:45:15;;;;;;;9.07;2.88;;;;;;;;;;6214191;23;20493;-72
2022/09/17 04:47:43;;;;;;;9.07;3.55;;;;;;;;;;6215901;23;20050;-71
2022/09/17 04:50:10;;;;;;;9.68;4.13;;;;;;;;;;6215747;23;20012;-72
2022/09/17 04:52:42;;;;;;;5.28;2.78;;;;;;;;;;6215695;23;20021;-71
2022/09/17 04:55:09;;;;;;;6.57;2.97;;;;;;;;;;6215107;23;20741;-72
2022/09/17 04:57:37;;;;;;;6.25;3.13;;;;;;;;;;6215607;23;20047;-71
2022/09/17 05:00:09;;;;;;;8.90;2.78;;;;;;;;;;6215611;23;20020;-71
2022/09/17 05:02:36;;;;;;;6.15;3.17;;;;;;;;;;6216057;23;20099;-71
2022/09/17 05:05:04;;;;;;;7.93;3.30;;;;;;;;;;6215932;23;20083;-71
2022/09/17 05:07:31;;;;;;;9.63;2.55;;;;;;;;;;6215886;23;20513;-70
2022/09/17 05:09:59;;;;;;;8.57;2.63;;;;;;;;;;6215822;23;20095;-70
2022/09/17 05:12:26;;;;;;;12.90;5.22;;;;;;;;;;6216158;23;20016;-70
2022/09/17 05:15:00;;;;;;;8.35;3.17;;;;;;;;;;6215429;23;20530;-70
2022/09/17 05:17:28;;;;;;;9.15;3.25;;;;;;;;;;6215499;23;20023;-71
2022/09/17 05:19:55;;;;;;;6.43;2.45;;;;;;;;;;6215762;23;20368;-71
2022/09/17 05:22:23;;;;;;;7.55;2.97;;;;;;;;;;6215105;23;20020;-71
2022/09/17 05:24:50;;;;;;;5.47;2.50;;;;;;;;;;6215557;23;20013;-71
2022/09/17 05:27:18;;;;;;;5.97;2.95;;;;;;;;;;6215662;23;20025;-71
2022/09/17 05:29:45;;;;;;;7.78;2.60;;;;;;;;;;6215385;23;20016;-71
2022/09/17 05:32:13;;;;;;;5.82;2.78;;;;;;;;;;6215527;23;20016;-71
2022/09/17 05:34:40;;;;;;;9.02;3.88;;;;;;;;;;6215724;23;20012;-71
2022/09/17 05:37:10;;;;;;;7.57;2.95;;;;;;;;;;6215204;23;20031;-71
2022/09/17 05:39:38;;;;;;;4.65;2.53;;;;;;;;;;6215339;23;20013;-71
2022/09/17 05:42:06;;;;;;;7.50;3.63;;;;;;;;;;6215815;23;20685;-71
2022/09/17 05:44:33;;;;;;;9.88;3.30;;;;;;;;;;6215344;23;20016;-71
2022/09/17 05:47:01;;;;;;;5.75;2.70;;;;;;;;;;6215099;23;20019;-72
2022/09/17 05:49:28;;;;;;;7.00;2.80;;;;;;;;;;6215225;23;20462;-71
2022/09/17 05:51:56;;;;;;;9.25;2.92;;;;;;;;;;6215179;23;20021;-71
2022/09/17 05:54:23;;;;;;;8.93;3.40;;;;;;;;;;6215247;23;20021;-71
2022/09/17 05:56:54;;;;;;;8.27;3.60;;;;;;;;;;6215473;23;20023;-71
2022/09/17 05:59:21;;;;;;;11.00;3.03;;;;;;;;;;6215313;23;20017;-71
2022/09/17 06:01:49;;;;;;;6.25;3.25;;;;;;;;;;6214991;23;20509;-71
2022/09/17 06:04:17;;;;;;;8.30;3.10;;;;;;;;;;6215631;23;20092;-71
2022/09/17 06:06:44;;;;;;;11.98;4.60;;;;;;;;;;6188491;23;20012;-72
2022/09/17 06:09:14;;;;;;;15.02;4.97;;;;;;;;;;6214988;23;20387;-71
2022/09/17 06:11:42;;;;;;;13.20;5.68;;;;;;;;;;6215009;23;20039;-72
2022/09/17 06:14:09;;;;;;;10.85;6.25;;;;;;;;;;6214938;23;20465;-71
2022/09/17 06:16:37;;;;;;;17.08;7.25;;;;;;;;;;6215384;23;20013;-73
2022/09/17 06:19:04;;;;;;;17.38;8.43;;;;;;;;;;6214809;23;20021;-72
2022/09/17 06:21:32;;;;;;;15.43;6.72;;;;;;;;;;6215088;23;20305;-72
2022/09/17 06:24:00;;;;;;;13.95;7.03;;;;;;;;;;6214984;23;20017;-72
2022/09/17 06:26:32;;;;;;;11.30;6.60;;;;;;;;;;6215159;23;20092;-72
2022/09/17 06:28:59;;;;;;;18.42;7.57;;;;;;;;;;6214587;23;20021;-73
2022/09/17 06:31:27;;;;;;;16.73;8.63;;;;;;;;;;6215151;23;20346;-73
2022/09/17 06:33:56;;;;;;;19.98;9.63;;;;;;;;;;6188092;23;20024;-74
2022/09/17 06:36:24;;;;;;;15.63;8.13;;;;;;;;;;6163778;23;20020;-74
2022/09/17 06:38:52;;;;;;;16.27;8.75;;;;;;;;;;6214648;23;20459;-73
2022/09/17 06:41:19;;;;;;;13.98;7.03;;;;;;;;;;6214926;23;20023;-73
2022/09/17 06:43:47;;;;;;;12.98;6.28;;;;;;;;;;6214870;23;20031;-73
2022/09/17 06:46:15;;;;;;;13.40;5.38;;;;;;;;;;6214739;23;20012;-74
2022/09/17 06:48:42;;;;;;;15.75;5.10;;;;;;;;;;6214186;23;20017;-74
2022/09/17 06:51:10;;;;;;;9.50;4.35;;;;;;;;;;6214490;23;20013;-73
2022/09/17 06:53:39;;;;;;;12.00;4.63;;;;;;;;;;6214303;23;20021;-73
2022/09/17 06:56:07;;;;;;;17.60;7.90;;;;;;;;;;6214914;23;20016;-73
2022/09/17 06:58:42;;;;;;;14.68;6.35;;;;;;;;;;6214860;23;20067;-73
2022/09/17 07:01:11;;;;;;;13.98;4.78;;;;;;;;;;6214819;23;20513;-73
2022/09/17 07:03:41;;;;;;;9.75;4.47;;;;;;;;;;6214820;23;20020;-72
2022/09/17 07:06:09;;;;;;;11.68;5.20;;;;;;;;;;6214698;23;20012;-74
2022/09/17 07:08:38;;;;;;;14.25;6.38;;;;;;;;;;6214752;23;20020;-74
2022/09/17 07:11:06;;;;;;;12.95;4.97;;;;;;;;;;6214059;23;20012;-73
2022/09/17 07:13:34;;;;;;;9.43;4.50;;;;;;;;;;6214044;23;20016;-72
2022/09/17 07:16:03;;;;;;;14.55;5.43;;;;;;;;;;6213035;23;20026;-72
2022/09/17 07:18:31;;;;;;;14.98;7.25;;;;;;;;;;6214103;23;20044;-73
2022/09/17 07:21:00;;;;;;;9.73;4.00;;;;;;;;;;6213932;23;20017;-74
2022/09/17 07:23:31;;;;;;;15.20;7.97;;;;;;;;;;6214213;23;20021;-73
2022/09/17 07:26:00;;;;;;;12.27;7.82;;;;;;;;;;6214232;23;20408;-74
2022/09/17 07:28:28;;;;;;;11.57;5.65;;;;;;;;;;6213637;23;20016;-72
2022/09/17 07:30:56;;;;;;;17.15;8.50;;;;;;;;;;6214317;23;20012;-72
2022/09/17 07:33:25;;;;;;;18.23;8.73;;;;;;;;;;6214436;23;20031;-73
2022/09/17 07:35:59;;;;;;;15.23;7.97;;;;;;;;;;6214038;23;20442;-73
2022/09/17 07:38:28;;;;;;;16.15;8.55;;;;;;;;;;6213850;23;20016;-73
2022/09/17 07:40:59;;;;;;;17.55;9.07;;;;;;;;;;6214280;23;20070;-73
2022/09/17 07:43:28;;;;;;;16.70;8.70;;;;;;;;;;6213578;23;20024;-73
2022/09/17 07:45:57;;;;;;;19.40;10.25;;;;;;;;;;6213747;23;20013;-74
2022/09/17 07:48:25;;;;;;;28.27;14.00;;;;;;;;;;6213748;23;20017;-74
2022/09/17 07:50:52;;;;;;;25.15;14.05;;;;;;;;;;6213382;23;20292;-72
2022/09/17 07:53:21;;;;;;;24.25;14.05;;;;;;;;;;6188559;23;20025;-72
2022/09/17 07:55:59;;;;;;;24.48;15.30;;;;;;;;;;6216420;23;20012;-72
2022/09/17 07:58:31;;;;;;;29.35;14.05;;;;;;;;;;6215887;23;20443;-72
2022/09/17 08:01:02;;;;;;;32.13;16.98;;;;;;;;;;6215745;23;20016;-72
2022/09/17 08:03:29;;;;;;;28.55;16.30;;;;;;;;;;6215368;23;20400;-74
2022/09/17 08:06:04;;;;;;;30.50;15.35;;;;;;;;;;6189608;23;20043;-74
2022/09/17 08:08:32;;;;;;;;;;;;;;;;;;6216173;23;20378;-73
2022/09/17 08:11:00;;;;;;;23.38;13.27;;;;;;;;;;6215823;23;19916;-75
2022/09/17 08:13:28;;;;;;;22.42;11.55;;;;;;;;;;6215247;23;20043;-71
2022/09/17 08:16:03;;;;;;;22.52;10.68;;;;;;;;;;6215475;23;20019;-72
2022/09/17 08:18:31;;;;;;;16.60;9.70;;;;;;;;;;6190055;23;20028;-72
2022/09/17 08:20:59;;;;;;;20.77;9.07;;;;;;;;;;6215602;23;20012;-75
2022/09/17 08:23:27;;;;;;;14.88;8.27;;;;;;;;;;6214903;23;20451;-74
2022/09/17 08:25:56;;;;;;;14.32;8.25;;;;;;;;;;6215575;23;20044;-73
2022/09/17 08:28:24;;;;;;;17.17;7.80;;;;;;;;;;6214796;23;20020;-72
2022/09/17 08:30:52;;;;;;;26.92;16.40;;;;;;;;;;6215194;23;20024;-73
2022/09/17 08:33:20;;;;;;;42.85;30.38;;;;;;;;;;6188944;23;20020;-75
2022/09/17 08:35:51;;;;;;;18.42;9.40;;;;;;;;;;6215546;23;20024;-76
2022/09/17 08:38:19;;;;;;;8.10;5.13;;;;;;;;;;6215532;23;20016;-72
2022/09/17 08:40:59;;;;;;;16.67;9.95;;;;;;;;;;6215414;23;20044;-72
2022/09/17 08:43:28;;;;;;;12.10;5.53;;;;;;;;;;6188676;23;20392;-75
2022/09/17 08:45:57;;;;;;;11.82;6.80;;;;;;;;;;6211558;23;20021;-72
2022/09/17 08:48:27;;;;;;;23.67;5.93;;;;;;;;;;6215230;23;20016;-72
2022/09/17 08:50:55;;;;;;;13.00;4.78;;;;;;;;;;6215341;23;20382;-74
2022/09/17 08:53:41;;;;;;;10.85;4.82;;;;;;;;;;6189900;23;20020;-73
2022/09/17 08:56:15;;;;;;;16.92;8.55;;;;;;;;;;6214674;23;20391;-73
2022/09/17 08:58:43;;;;;;;17.73;12.88;;;;;;;;;;6214877;23;20546;-73
2022/09/17 09:01:20;;;;;;;21.33;7.25;;;;;;;;;;6214701;23;20332;-72
2022/09/17 09:04:01;;;;;;;11.13;5.50;;;;;;;;;;6214298;23;20442;-73
2022/09/17 09:06:35;;;;;;;10.07;4.50;;;;;;;;;;6214802;23;20039;-72
2022/09/17 09:09:10;;;;;;;13.25;4.90;;;;;;;;;;6188862;23;20017;-72
2022/09/17 09:11:39;;;;;;;8.55;3.60;;;;;;;;;;6215039;23;20020;-72
2022/09/17 09:14:13;;;;;;;15.52;4.57;;;;;;;;;;6215894;23;20051;-72
2022/09/17 09:16:44;;;;;;;10.25;4.70;;;;;;;;;;6189052;23;20095;-73
2022/09/17 09:19:19;;;;;;;12.85;5.78;;;;;;;;;;6215316;23;20025;-73
2022/09/17 09:22:22;;;;;;;13.00;7.70;;;;;;;;;;6214744;23;20074;-74
2022/09/17 09:24:52;;;;;;;18.77;7.97;;;;;;;;;;6064493;23;20029;-72
2022/09/17 09:27:32;;;;;;;14.27;6.30;;;;;;;;;;6190125;23;20024;-73
2022/09/17 09:30:09;;;;;;;15.90;6.82;;;;;;;;;;6187519;23;20025;-72
2022/09/17 09:32:53;;;;;;;7.40;3.67;;;;;;;;;;6214680;23;20036;-72
2022/09/17 09:35:23;;;;;;;10.75;4.22;;;;;;;;;;6214502;23;20016;-72
2022/09/17 09:37:57;;;;;;;9.93;4.57;;;;;;;;;;6214246;23;20016;-72
2022/09/17 09:40:30;;;;;;;11.60;4.15;;;;;;;;;;6214644;23;20013;-72
2022/09/17 09:43:00;;;;;;;10.37;3.83;;;;;;;;;;6214220;23;20016;-72
2022/09/17 09:45:48;;;;;;;9.52;3.65;;;;;;;;;;6214643;23;20242;-75
2022/09/17 09:48:25;;;;;;;11.98;4.35;;;;;;;;;;6163485;23;20019;-75
2022/09/17 09:50:59;;;;;;;28.90;22.65;;;;;;;;;;6214800;23;20067;-74
2022/09/17 09:53:33;;;;;;;13.63;5.22;;;;;;;;;;6214892;23;20048;-74
2022/09/17 09:56:06;;;;;;;9.30;4.72;;;;;;;;;;6214757;23;20036;-74
2022/09/17 09:58:38;;;;;;;11.80;4.60;;;;;;;;;;6214286;23;20017;-74
2022/09/17 10:01:13;;;;;;;10.90;5.35;;;;;;;;;;6214535;23;20028;-74
2022/09/17 10:03:44;;;;;;;12.25;5.78;;;;;;;;;;6213313;23;20039;-72
2022/09/17 10:06:13;;;;;;;10.85;4.72;;;;;;;;;;6187583;23;20052;-72
2022/09/17 10:09:01;;;;;;;10.35;5.25;;;;;;;;;;6214451;23;20455;-72
2022/09/17 10:11:32;;;;;;;6.82;3.95;;;;;;;;;;6213718;23;20012;-73
2022/09/17 10:14:18;;;;;;;8.55;3.97;;;;;;;;;;6162867;23;20075;-73
2022/09/17 10:16:45;;;;;;;9.23;4.32;;;;;;;;;;6213915;23;20087;-73
2022/09/17 10:19:18;;;;;;;8.18;3.40;;;;;;;;;;6213945;23;20402;-74
2022/09/17 10:21:46;;;;;;;7.93;3.95;;;;;;;;;;6214199;23;20023;-74
2022/09/17 10:24:30;;;;;;;9.52;3.88;;;;;;;;;;6214675;23;20039;-73
2022/09/17 10:27:02;;;;;;;13.23;4.20;;;;;;;;;;6213676;23;20096;-73
2022/09/17 10:29:29;;;;;;;10.60;5.90;;;;;;;;;;6213708;23;20087;-73
2022/09/17 10:31:58;;;;;;;11.85;5.78;;;;;;;;;;6214961;23;20017;-73
2022/09/17 10:34:25;;;;;;;7.93;3.90;;;;;;;;;;6214545;23;20095;-73
2022/09/17 10:36:55;;;;;;;11.80;4.30;;;;;;;;;;6215025;23;20016;-74
2022/09/17 10:39:29;;;;;;;8.40;3.45;;;;;;;;;;6214653;23;20017;-74
2022/09/17 10:41:56;;;;;;;7.85;3.90;;;;;;;;;;6188266;23;20027;-74
2022/09/17 10:44:25;;;;;;;7.88;3.78;;;;;;;;;;6214271;23;20016;-74
2022/09/17 10:46:53;;;;;;;7.80;3.53;;;;;;;;;;6214461;23;20067;-74
2022/09/17 10:49:23;;;;;;;8.25;3.10;;;;;;;;;;6214894;23;20017;-74
2022/09/17 10:51:51;;;;;;;10.85;5.47;;;;;;;;;;6215262;23;20046;-75
2022/09/17 10:54:40;;;;;;;9.18;3.38;;;;;;;;;;6214750;23;20020;-74
2022/09/17 10:57:09;;;;;;;11.55;5.32;;;;;;;;;;6213469;23;20439;-74
2022/09/17 10:59:40;;;;;;;10.38;4.75;;;;;;;;;;6188018;23;20551;-74
2022/09/17 11:02:26;;;;;;;10.02;4.88;;;;;;;;;;6214579;23;20063;-74
2022/09/17 11:05:01;;;;;;;9.70;5.07;;;;;;;;;;6214744;23;20044;-73
2022/09/17 11:07:44;;;;;;;10.43;4.53;;;;;;;;;;6214979;23;20023;-74
2022/09/17 11:10:26;;;;;;;11.75;4.82;;;;;;;;;;6214774;23;20040;-74
2022/09/17 11:13:00;;;;;;;8.20;3.25;;;;;;;;;;6214836;23;20017;-74
2022/09/17 11:15:31;;;;;;;10.52;5.38;;;;;;;;;;6214935;23;20048;-74
2022/09/17 11:18:02;;;;;;;11.43;5.40;;;;;;;;;;6215055;23;20036;-74
2022/09/17 11:20:41;;;;;;;9.57;4.30;;;;;;;;;;6214972;23;20048;-73
2022/09/17 11:23:21;;;;;;;8.07;4.68;;;;;;;;;;6214929;23;20040;-73
2022/09/17 11:26:15;;;;;;;10.90;3.80;;;;;;;;;;6215035;23;20024;-75
2022/09/17 11:28:48;;;;;;;9.23;4.88;;;;;;;;;;6146256;23;20044;-72
2022/09/17 11:31:28;;;;;;;10.45;5.43;;;;;;;;;;6217279;23;20103;-73
2022/09/17 11:33:56;;;;;;;9.70;3.67;;;;;;;;;;6216866;23;20218;-74
2022/09/17 11:36:46;;;;;;;7.57;4.00;;;;;;;;;;6216773;23;20497;-72
2022/09/17 11:39:18;;;;;;;24.00;17.25;;;;;;;;;;6148959;23;20040;-73
2022/09/17 11:41:48;;;;;;;10.77;5.35;;;;;;;;;;6216756;23;20017;-72
2022/09/17 11:44:22;;;;;;;6.85;3.83;;;;;;;;;;6216929;23;20017;-72
2022/09/17 11:46:53;;;;;;;9.23;4.68;;;;;;;;;;6216604;23;20079;-76
2022/09/17 11:49:25;;;;;;;8.68;4.28;;;;;;;;;;6216605;23;20021;-73
2022/09/17 11:51:56;;;;;;;10.88;4.75;;;;;;;;;;6216815;23;20013;-72
2022/09/17 11:54:29;;;;;;;9.40;5.15;;;;;;;;;;6216706;23;20229;-73
2022/09/17 11:57:05;;;;;;;12.32;5.57;;;;;;;;;;6216504;23;20020;-72
2022/09/17 11:59:39;;;;;;;13.38;6.10;;;;;;;;;;6216646;23;20523;-75
2022/09/17 12:02:24;;;;;;;10.48;4.68;;;;;;;;;;6216868;23;20016;-75
2022/09/17 12:04:59;;;;;;;10.35;5.40;;;;;;;;;;6216571;23;20048;-75
2022/09/17 12:07:35;;;;;;;9.55;5.22;;;;;;;;;;6216682;23;20023;-75
2022/09/17 12:10:26;;;;;;;10.48;6.15;;;;;;;;;;6216578;23;20324;-75
2022/09/17 12:12:57;;;;;;;9.65;5.25;;;;;;;;;;6123507;23;20462;-75
2022/09/17 12:15:26;;;;;;;10.13;4.65;;;;;;;;;;6216533;23;20013;-75
2022/09/17 12:18:04;;;;;;;10.73;4.07;;;;;;;;;;6216410;23;20021;-75
2022/09/17 12:20:54;;;;;;;10.52;5.10;;;;;;;;;;6216324;23;20039;-75
2022/09/17 12:23:33;;;;;;;11.25;4.68;;;;;;;;;;6216192;23;20063;-75
2022/09/17 12:26:07;;;;;;;9.02;5.72;;;;;;;;;;6216270;23;20013;-75
2022/09/17 12:28:35;;;;;;;;;;;;;;;;;;6216846;23;20079;-74
2022/09/17 12:31:10;;;;;;;7.03;4.13;;;;;;;;;;6216190;23;19962;-75
2022/09/17 12:33:41;;;;;;;7.80;4.00;;;;;;;;;;6216270;23;20017;-75
2022/09/17 12:36:15;;;;;;;9.57;4.63;;;;;;;;;;6216362;23;20023;-75
2022/09/17 12:39:07;;;;;;;7.60;4.15;;;;;;;;;;6216171;23;20016;-75
2022/09/17 12:41:37;;;;;;;10.80;4.10;;;;;;;;;;6216399;23;20097;-75
2022/09/17 12:44:22;;;;;;;10.38;4.30;;;;;;;;;;6215775;23;20084;-76
2022/09/17 12:46:52;;;;;;;7.40;5.15;;;;;;;;;;6215673;23;20017;-76
2022/09/17 12:49:38;;;;;;;8.52;4.95;;;;;;;;;;6214704;23;20020;-75
2022/09/17 12:52:12;;;;;;;9.18;4.43;;;;;;;;;;6215340;23;20435;-74
2022/09/17 12:54:50;;;;;;;11.30;4.13;;;;;;;;;;6214783;23;20017;-74
2022/09/17 12:57:26;;;;;;;8.75;3.55;;;;;;;;;;6215582;23;20013;-80
2022/09/17 13:00:21;;;;;;;8.65;3.80;;;;;;;;;;6214835;23;20503;-72
2022/09/17 13:02:57;;;;;;;9.20;4.20;;;;;;;;;;6210160;23;20020;-73
2022/09/17 13:05:37;;;;;;;10.93;4.43;;;;;;;;;;6215589;23;20040;-71
2022/09/17 13:08:07;;;;;;;9.00;4.00;;;;;;;;;;6215564;23;20017;-73
2022/09/17 13:10:40;;;;;;;14.43;6.78;;;;;;;;;;6188368;23;20086;-70
2022/09/17 13:13:13;;;;;;;9.18;4.60;;;;;;;;;;6215392;23;20455;-70
2022/09/17 13:15:53;;;;;;;29.63;23.23;;;;;;;;;;6214937;23;20047;-70
2022/09/17 13:18:29;;;;;;;24.70;16.52;;;;;;;;;;6215126;23;20021;-69
2022/09/17 13:21:07;;;;;;;12.82;8.20;;;;;;;;;;6215274;23;20405;-69
2022/09/17 13:23:34;;;;;;;8.32;4.93;;;;;;;;;;6215170;23;20074;-69
2022/09/17 13:26:04;;;;;;;10.82;6.65;;;;;;;;;;6215119;23;20016;-70
2022/09/17 13:28:41;;;;;;;8.90;4.40;;;;;;;;;;6189052;23;20016;-70
2022/09/17 13:31:19;;;;;;;8.65;3.28;;;;;;;;;;6215509;23;20020;-75
2022/09/17 13:33:57;;;;;;;16.75;11.13;;;;;;;;;;6188513;23;20025;-74
2022/09/17 13:36:38;;;;;;;9.02;3.75;;;;;;;;;;6215361;23;20051;-73
2022/09/17 13:39:07;;;;;;;8.35;3.33;;;;;;;;;;6215504;23;20059;-73
2022/09/17 13:41:39;;;;;;;17.60;4.45;;;;;;;;;;6216042;23;20036;-73
2022/09/17 13:44:07;;;;;;;18.58;3.97;;;;;;;;;;6214731;23;20100;-75
2022/09/17 13:46:36;;;;;;;10.32;5.22;;;;;;;;;;6215068;23;20037;-74
2022/09/17 13:49:13;;;;;;;8.98;4.03;;;;;;;;;;6214401;23;20019;-75
2022/09/17 13:51:40;;;;;;;11.90;7.60;;;;;;;;;;6214878;23;20084;-76
2022/09/17 13:54:09;;;;;;;8.18;3.38;;;;;;;;;;6214821;23;20020;-73
2022/09/17 13:56:38;;;;;;;9.55;4.00;;;;;;;;;;6214613;23;20316;-73
2022/09/17 13:59:10;;;;;;;21.65;7.68;;;;;;;;;;6214522;23;20013;-73
2022/09/17 14:01:49;;;;;;;5.03;3.60;;;;;;;;;;6215081;23;20127;-73
2022/09/17 14:04:36;;;;;;;11.18;3.85;;;;;;;;;;6163798;23;21081;-73
2022/09/17 14:07:22;;;;;;;8.43;4.18;;;;;;;;;;6188074;23;20485;-72
2022/09/17 14:09:51;;;;;;;8.85;4.13;;;;;;;;;;6214463;23;20410;-73
2022/09/17 14:12:46;;;;;;;6.07;2.65;;;;;;;;;;6214851;23;20023;-72
2022/09/17 14:15:32;;;;;;;7.47;3.60;;;;;;;;;;6215401;23;20071;-71
2022/09/17 14:18:02;;;;;;;6.13;3.22;;;;;;;;;;6215799;23;20016;-72
2022/09/17 14:20:33;;;;;;;9.13;3.67;;;;;;;;;;6215047;23;20036;-72
2022/09/17 14:23:01;;;;;;;6.13;3.08;;;;;;;;;;6213713;23;20016;-73
2022/09/17 14:25:36;;;;;;;11.18;3.10;;;;;;;;;;6214711;23;20025;-72
2022/09/17 14:28:13;;;;;;;6.43;2.60;;;;;;;;;;6214680;23;20335;-72
2022/09/17 14:30:43;;;;;;;7.80;3.70;;;;;;;;;;6214955;23;20016;-72
2022/09/17 14:33:18;;;;;;;8.13;3.42;;;;;;;;;;6214560;23;20079;-73
2022/09/17 14:35:47;;;;;;;11.88;3.33;;;;;;;;;;6214499;23;20013;-73
2022/09/17 14:38:21;;;;;;;7.10;3.58;;;;;;;;;;6187812;23;20095;-73
2022/09/17 14:41:01;;;;;;;10.50;3.58;;;;;;;;;;6214556;23;20027;-73
2022/09/17 14:43:31;;;;;;;6.03;2.75;;;;;;;;;;6187246;23;20510;-72
2022/09/17 14:45:58;;;;;;;5.13;2.45;;;;;;;;;;6214034;23;20071;-73
2022/09/17 14:48:27;;;;;;;6.43;2.78;;;;;;;;;;6187416;23;20017;-72
2022/09/17 14:51:13;;;;;;;5.80;2.55;;;;;;;;;;6213524;23;20017;-72
2022/09/17 14:53:41;;;;;;;6.45;3.40;;;;;;;;;;6187360;23;20019;-72
2022/09/17 14:56:11;;;;;;;7.63;3.03;;;;;;;;;;6214115;23;20012;-72
2022/09/17 14:58:41;;;;;;;8.45;3.50;;;;;;;;;;6214563;23;20016;-72
2022/09/17 15:01:26;;;;;;;9.40;4.07;;;;;;;;;;6214299;23;20013;-72
2022/09/17 15:04:12;;;;;;;12.68;4.80;;;;;;;;;;6214516;23;20032;-72